Time;durP1;ratioP1;P1;durP2;ratioP2;P2;SDS_P1;SDS_P2;PMS_P1;PMS_P2;Temp;Humidity;BMP_temperature;BMP_pressure;BME280_temperature;BME280_humidity;BME280_pressure;Samples;Min_cycle;Max_cycle;Signal;HPM_P1;HPM_P2
2022/06/07 00:01:17;;;;;;;13.18;8.88;;;12.10;99.90;;;;;;5050042;28;20063;-66
2022/06/07 00:03:43;;;;;;;15.15;10.75;;;12.10;99.90;;;;;;5050412;28;20106;-65
2022/06/07 00:06:08;;;;;;;12.73;10.13;;;12.10;99.90;;;;;;5051658;28;20547;-65
2022/06/07 00:08:34;;;;;;;13.85;10.30;;;12.10;99.90;;;;;;5050329;28;20052;-66
2022/06/07 00:10:59;;;;;;;14.23;10.30;;;12.10;99.90;;;;;;5049825;28;20542;-67
2022/06/07 00:13:25;;;;;;;15.07;10.98;;;12.10;99.90;;;;;;5051324;28;20538;-65
2022/06/07 00:15:51;;;;;;;15.63;10.80;;;12.10;99.90;;;;;;5051089;28;20044;-65
2022/06/07 00:18:17;;;;;;;13.25;9.88;;;12.10;99.90;;;;;;5051098;28;20392;-66
2022/06/07 00:20:43;;;;;;;13.63;10.23;;;12.10;99.90;;;;;;5051752;28;20502;-66
2022/06/07 00:23:12;;;;;;;13.60;9.57;;;12.10;99.90;;;;;;5052860;28;20049;-66
2022/06/07 00:25:38;;;;;;;14.90;9.90;;;12.10;99.90;;;;;;5051674;28;20526;-64
2022/06/07 00:28:05;;;;;;;12.63;9.43;;;12.20;99.90;;;;;;5034466;28;20124;-66
2022/06/07 00:30:31;;;;;;;15.77;9.32;;;12.20;99.90;;;;;;5051088;28;20106;-65
2022/06/07 00:32:57;;;;;;;13.85;9.43;;;12.20;99.90;;;;;;5051342;28;20063;-66
2022/06/07 00:35:23;;;;;;;15.90;8.88;;;12.20;99.90;;;;;;5052430;28;20044;-64
2022/06/07 00:37:49;;;;;;;12.90;8.90;;;12.20;99.90;;;;;;5051051;28;20049;-65
2022/06/07 00:40:15;;;;;;;15.50;9.95;;;12.20;99.90;;;;;;5050958;28;20044;-65
2022/06/07 00:42:42;;;;;;;15.85;9.52;;;12.20;99.90;;;;;;5051598;28;20418;-64
2022/06/07 00:45:15;;;;;;;17.08;9.20;;;12.20;99.90;;;;;;5050938;28;20128;-65
2022/06/07 00:47:41;;;;;;;10.98;8.98;;;12.20;99.90;;;;;;5052269;28;20033;-65
2022/06/07 00:50:31;;;;;;;12.18;10.20;;;12.20;99.90;;;;;;5050782;28;20044;-67
2022/06/07 00:52:59;;;;;;;13.02;9.90;;;12.20;99.90;;;;;;5050670;28;20044;-67
2022/06/07 00:55:25;;;;;;;14.88;9.98;;;12.20;99.90;;;;;;5050839;28;20040;-66
2022/06/07 00:57:52;;;;;;;17.00;10.52;;;12.20;99.90;;;;;;5051047;28;20041;-64
2022/06/07 01:00:23;;;;;;;14.90;10.55;;;12.20;99.90;;;;;;5051767;28;20045;-64
2022/06/07 01:02:49;;;;;;;12.80;10.30;;;12.20;99.90;;;;;;5047765;28;20041;-64
2022/06/07 01:05:15;;;;;;;13.07;10.88;;;12.20;99.90;;;;;;5051347;28;20492;-64
2022/06/07 01:10:43;;;;;;;10.48;8.75;;;12.20;99.90;;;;;;5049137;28;20049;-65
2022/06/07 01:13:09;;;;;;;12.57;9.38;;;12.30;99.90;;;;;;5050002;28;20158;-66
2022/06/07 01:15:35;;;;;;;12.32;8.13;;;12.30;99.90;;;;;;5050128;28;20063;-65
2022/06/07 01:18:01;;;;;;;12.80;9.95;;;12.30;99.90;;;;;;5050191;28;20094;-65
2022/06/07 01:20:28;;;;;;;11.93;7.85;;;12.30;99.90;;;;;;5050788;28;20523;-65
2022/06/07 01:22:54;;;;;;;15.05;10.18;;;12.30;99.90;;;;;;5050295;28;20040;-65
2022/06/07 01:25:20;;;;;;;12.00;10.23;;;12.30;99.90;;;;;;5049956;28;20043;-65
2022/06/07 01:27:45;;;;;;;16.25;8.88;;;12.30;99.90;;;;;;5049826;28;20045;-66
2022/06/07 01:30:12;;;;;;;18.25;10.20;;;12.30;99.90;;;;;;5049685;28;20044;-65
2022/06/07 01:32:37;;;;;;;19.85;10.90;;;12.30;99.90;;;;;;5049557;28;20037;-66
2022/06/07 01:35:03;;;;;;;8.93;6.55;;;12.30;99.90;;;;;;5049725;28;20098;-65
2022/06/07 01:37:29;;;;;;;8.15;5.78;;;12.30;99.90;;;;;;5051216;28;20552;-65
2022/06/07 01:42:39;;;;;;;8.02;6.88;;;12.30;99.90;;;;;;5049697;28;20049;-65
2022/06/07 01:45:05;;;;;;;6.38;4.40;;;12.40;99.90;;;;;;5051208;28;20561;-65
2022/06/07 01:47:33;;;;;;;12.70;10.32;;;12.30;99.90;;;;;;5051220;28;20396;-65
2022/06/07 01:49:59;;;;;;;13.40;10.20;;;12.30;99.90;;;;;;5051015;28;20033;-66
2022/06/07 01:52:31;;;;;;;8.82;7.10;;;12.30;99.90;;;;;;5049801;28;20071;-66
2022/06/07 01:54:57;;;;;;;12.90;11.00;;;12.40;99.90;;;;;;5033003;28;20059;-65
2022/06/07 01:57:23;;;;;;;10.60;8.30;;;12.40;99.90;;;;;;5050870;28;20037;-66
2022/06/07 01:59:49;;;;;;;10.23;8.43;;;12.40;99.90;;;;;;5049632;28;20049;-65
2022/06/07 02:02:15;;;;;;;12.88;9.15;;;12.30;99.90;;;;;;5049727;28;20053;-65
2022/06/07 02:04:42;;;;;;;11.27;9.40;;;12.30;99.90;;;;;;5050820;28;20041;-66
2022/06/07 02:07:09;;;;;;;11.75;9.98;;;12.40;99.90;;;;;;5050808;28;20563;-66
2022/06/07 02:09:35;;;;;;;13.15;8.95;;;12.40;99.90;;;;;;5051233;28;20041;-64
2022/06/07 02:12:02;;;;;;;10.60;7.15;;;12.40;99.90;;;;;;5050561;28;20021;-65
2022/06/07 02:14:29;;;;;;;10.18;6.20;;;12.40;99.90;;;;;;5049339;28;20077;-66
2022/06/07 02:16:55;;;;;;;11.10;7.38;;;12.40;99.90;;;;;;5032573;28;20072;-67
2022/06/07 02:19:20;;;;;;;8.93;6.18;;;12.40;99.90;;;;;;5050455;28;20064;-65
2022/06/07 02:21:46;;;;;;;8.90;5.32;;;12.40;99.90;;;;;;5050576;28;20049;-65
2022/06/07 02:24:12;;;;;;;8.63;5.55;;;12.40;99.90;;;;;;5049225;28;20116;-65
2022/06/07 02:26:42;;;;;;;11.15;6.72;;;12.40;99.90;;;;;;5050504;28;20032;-65
2022/06/07 02:29:11;;;;;;;8.43;5.70;;;12.40;99.90;;;;;;5050623;28;20472;-66
2022/06/07 02:31:40;;;;;;;8.80;4.78;;;12.40;99.90;;;;;;5049222;28;20049;-66
2022/06/07 02:34:06;;;;;;;15.73;11.98;;;12.40;99.90;;;;;;5050720;28;20036;-66
2022/06/07 02:36:33;;;;;;;18.00;10.38;;;12.40;99.90;;;;;;5050429;28;20479;-65
2022/06/07 02:39:01;;;;;;;12.13;9.60;;;12.40;99.90;;;;;;5050120;28;20033;-65
2022/06/07 02:41:29;;;;;;;13.52;9.23;;;12.50;99.90;;;;;;5032669;28;20053;-65
2022/06/07 02:43:55;;;;;;;11.40;7.57;;;12.40;99.90;;;;;;5049083;28;20049;-64
2022/06/07 02:46:22;;;;;;;11.85;7.38;;;12.50;99.90;;;;;;5049145;28;20038;-66
2022/06/07 02:48:47;;;;;;;8.73;5.88;;;12.40;99.90;;;;;;5049357;28;20424;-66
2022/06/07 02:51:13;;;;;;;10.93;6.22;;;12.50;99.90;;;;;;5050812;28;20041;-65
2022/06/07 02:53:38;;;;;;;9.48;5.93;;;12.50;99.90;;;;;;5046306;28;20056;-65
2022/06/07 02:56:05;;;;;;;8.43;5.28;;;12.40;99.90;;;;;;5047097;28;20041;-65
2022/06/07 02:58:31;;;;;;;11.65;6.47;;;12.40;99.90;;;;;;5048465;28;20124;-66
2022/06/07 03:00:59;;;;;;;11.60;7.78;;;12.40;99.90;;;;;;5048089;28;20053;-66
2022/06/07 03:03:28;;;;;;;12.30;8.40;;;12.40;99.90;;;;;;5048492;28;20048;-66
2022/06/07 03:05:54;;;;;;;8.73;6.78;;;12.40;99.90;;;;;;5048497;28;20036;-66
2022/06/07 03:08:21;;;;;;;8.98;5.45;;;12.40;99.90;;;;;;5048482;28;20041;-66
2022/06/07 03:10:47;;;;;;;9.15;5.25;;;12.40;99.90;;;;;;5048551;28;20214;-67
2022/06/07 03:13:15;;;;;;;10.23;6.95;;;12.50;99.90;;;;;;5049617;28;20033;-65
2022/06/07 03:15:41;;;;;;;11.55;6.57;;;12.50;99.90;;;;;;5048625;28;20523;-64
2022/06/07 03:18:08;;;;;;;10.32;6.25;;;12.40;99.90;;;;;;5048329;28;20116;-66
2022/06/07 03:20:34;;;;;;;8.55;4.50;;;12.40;99.90;;;;;;5049503;28;20128;-66
2022/06/07 03:23:00;;;;;;;9.00;4.95;;;12.50;99.90;;;;;;5048262;28;20044;-66
2022/06/07 03:25:26;;;;;;;8.93;5.53;;;12.40;99.90;;;;;;5047725;28;20037;-65
2022/06/07 03:27:52;;;;;;;11.50;6.38;;;12.50;99.90;;;;;;5050216;28;20086;-64
2022/06/07 03:30:18;;;;;;;9.65;5.78;;;12.40;99.90;;;;;;5048437;28;20045;-66
2022/06/07 03:32:45;;;;;;;8.18;5.38;;;12.40;99.90;;;;;;5048892;28;20088;-65
2022/06/07 03:35:13;;;;;;;14.60;10.65;;;12.40;99.90;;;;;;5052927;28;20094;-66
2022/06/07 03:37:39;;;;;;;13.00;10.50;;;12.40;99.90;;;;;;5053374;28;20033;-66
2022/06/07 03:40:07;;;;;;;9.95;7.10;;;12.50;99.90;;;;;;5053302;28;20033;-67
2022/06/07 03:42:32;;;;;;;10.15;5.78;;;12.40;99.90;;;;;;5035464;28;20120;-65
2022/06/07 03:44:58;;;;;;;8.07;4.57;;;12.40;99.90;;;;;;5053585;28;20531;-65
2022/06/07 03:47:24;;;;;;;10.50;4.75;;;12.40;99.90;;;;;;5052138;28;20049;-65
2022/06/07 03:49:49;;;;;;;7.45;4.65;;;12.40;99.90;;;;;;5052229;28;20045;-65
2022/06/07 03:52:16;;;;;;;9.23;5.97;;;12.40;99.90;;;;;;5053099;28;20063;-66
2022/06/07 03:54:43;;;;;;;9.98;5.43;;;12.40;99.90;;;;;;5053233;28;20120;-64
2022/06/07 03:57:10;;;;;;;8.07;5.22;;;12.40;99.90;;;;;;5053169;28;20530;-65
2022/06/07 03:59:37;;;;;;;8.02;5.55;;;12.40;99.90;;;;;;5052945;28;20043;-66
2022/06/07 04:02:04;;;;;;;8.00;4.40;;;12.40;99.90;;;;;;5051857;28;20045;-66
2022/06/07 04:04:31;;;;;;;8.45;5.28;;;12.40;99.90;;;;;;5052937;28;20132;-66
2022/06/07 04:09:41;;;;;;;9.40;5.78;;;12.40;99.90;;;;;;5051634;28;20068;-66
2022/06/07 04:12:15;;;;;;;11.30;5.63;;;12.40;99.90;;;;;;5052915;28;20036;-65
2022/06/07 04:14:42;;;;;;;9.93;5.75;;;12.40;99.90;;;;;;5049801;28;20396;-65
2022/06/07 04:17:09;;;;;;;9.23;6.05;;;12.40;99.90;;;;;;5052827;28;20037;-65
2022/06/07 04:19:36;;;;;;;9.30;6.07;;;12.40;99.90;;;;;;5051436;28;20044;-66
2022/06/07 04:22:03;;;;;;;10.60;6.38;;;12.40;99.90;;;;;;5051675;28;20487;-66
2022/06/07 04:24:28;;;;;;;10.18;6.55;;;12.40;99.90;;;;;;5051504;28;20491;-66
2022/06/07 04:26:54;;;;;;;9.85;6.75;;;12.40;99.90;;;;;;5052728;28;20036;-65
2022/06/07 04:29:20;;;;;;;9.95;7.00;;;12.40;99.90;;;;;;5051353;28;20111;-65
2022/06/07 04:31:45;;;;;;;11.05;6.88;;;12.40;99.90;;;;;;5051071;28;20048;-65
2022/06/07 04:34:12;;;;;;;11.57;7.07;;;12.40;99.90;;;;;;5051373;28;20041;-64
2022/06/07 04:36:38;;;;;;;12.57;9.43;;;12.40;99.90;;;;;;5051355;28;20052;-65
2022/06/07 04:39:05;;;;;;;12.77;9.68;;;12.40;99.90;;;;;;5051095;28;20105;-65
2022/06/07 04:41:31;;;;;;;12.95;9.85;;;12.40;99.90;;;;;;5034137;28;20056;-66
2022/06/07 04:43:57;;;;;;;11.65;9.93;;;12.40;99.90;;;;;;5051135;28;20490;-65
2022/06/07 04:46:24;;;;;;;13.00;10.77;;;12.40;99.90;;;;;;5046469;28;20087;-65
2022/06/07 04:48:51;;;;;;;13.88;10.77;;;12.50;99.90;;;;;;5051892;28;20041;-65
2022/06/07 04:51:31;;;;;;;14.57;11.35;;;12.50;99.90;;;;;;5050404;28;20048;-66
2022/06/07 04:53:59;;;;;;;15.27;10.60;;;12.50;99.90;;;;;;5050683;28;20088;-66
2022/06/07 04:56:30;;;;;;;15.70;11.38;;;12.50;99.90;;;;;;5051736;28;20036;-65
2022/06/07 04:58:57;;;;;;;14.07;10.73;;;12.60;99.90;;;;;;5050793;28;20400;-66
2022/06/07 05:01:29;;;;;;;14.00;11.10;;;12.60;99.90;;;;;;5049869;28;20049;-66
2022/06/07 05:03:55;;;;;;;16.42;11.30;;;12.60;99.90;;;;;;5050242;28;20078;-66
2022/06/07 05:06:36;;;;;;;40.22;17.15;;;12.60;99.90;;;;;;5050485;28;20076;-66
2022/06/07 05:09:09;;;;;;;14.50;10.40;;;12.60;99.90;;;;;;5050403;28;20529;-65
2022/06/07 05:11:35;;;;;;;18.00;10.85;;;12.60;99.90;;;;;;5050070;28;20036;-65
2022/06/07 05:14:05;;;;;;;15.93;10.60;;;12.60;99.90;;;;;;5051505;28;20037;-65
2022/06/07 05:16:32;;;;;;;13.15;10.45;;;12.70;99.90;;;;;;5051497;28;20514;-67
2022/06/07 05:18:57;;;;;;;20.63;11.15;;;12.70;99.90;;;;;;5050624;28;20040;-65
2022/06/07 05:21:25;;;;;;;15.02;10.35;;;12.70;99.90;;;;;;5050362;28;20049;-65
2022/06/07 05:23:51;;;;;;;15.25;10.07;;;12.70;99.90;;;;;;5050425;28;20381;-65
2022/06/07 05:26:28;;;;;;;16.45;11.18;;;12.70;99.90;;;;;;5051691;28;20037;-65
2022/06/07 05:28:54;;;;;;;13.60;10.20;;;12.70;99.90;;;;;;5050253;28;20056;-66
2022/06/07 05:31:20;;;;;;;15.77;11.43;;;12.70;99.90;;;;;;5051646;28;20357;-65
2022/06/07 05:33:45;;;;;;;14.38;10.98;;;12.70;99.90;;;;;;5049902;28;20047;-64
2022/06/07 05:36:11;;;;;;;14.63;10.20;;;12.70;99.90;;;;;;5049847;28;20452;-65
2022/06/07 05:38:37;;;;;;;15.68;11.13;;;12.70;99.90;;;;;;5051179;28;20037;-65
2022/06/07 05:41:03;;;;;;;15.35;11.00;;;12.70;99.90;;;;;;5051101;28;20040;-65
2022/06/07 05:43:29;;;;;;;16.75;10.60;;;12.70;99.90;;;;;;5033700;28;20049;-66
2022/06/07 05:45:56;;;;;;;14.25;10.70;;;12.70;99.90;;;;;;5049692;28;20043;-66
2022/06/07 05:48:22;;;;;;;13.23;10.57;;;12.70;99.90;;;;;;5033142;28;20041;-64
2022/06/07 05:50:49;;;;;;;16.58;10.90;;;12.70;99.90;;;;;;5050891;28;20072;-66
2022/06/07 05:53:15;;;;;;;15.30;11.00;;;12.70;99.90;;;;;;5051261;28;20044;-66
2022/06/07 05:55:41;;;;;;;13.27;10.93;;;12.70;99.90;;;;;;5049615;28;20388;-66
2022/06/07 05:58:07;;;;;;;15.45;10.05;;;12.70;99.90;;;;;;5049673;28;20392;-65
2022/06/07 06:00:34;;;;;;;13.73;10.05;;;12.70;99.90;;;;;;5049406;28;20088;-65
2022/06/07 06:03:00;;;;;;;16.20;11.50;;;12.70;99.90;;;;;;5051003;28;20033;-65
2022/06/07 06:05:25;;;;;;;18.38;10.50;;;12.70;99.90;;;;;;5049694;28;20613;-66
2022/06/07 06:10:35;;;;;;;15.43;11.15;;;12.70;99.90;;;;;;5049430;28;20057;-65
2022/06/07 06:13:01;;;;;;;19.17;11.60;;;12.70;99.90;;;;;;5049484;28;20449;-65
2022/06/07 06:15:26;;;;;;;14.90;10.65;;;12.60;99.90;;;;;;5050656;28;20516;-65
2022/06/07 06:17:52;;;;;;;15.73;11.45;;;12.60;99.90;;;;;;5050372;28;20056;-65
2022/06/07 06:20:19;;;;;;;19.40;11.32;;;12.60;99.90;;;;;;5049586;28;20102;-66
2022/06/07 06:22:45;;;;;;;16.02;11.32;;;12.60;99.90;;;;;;5049170;28;20065;-65
2022/06/07 06:25:11;;;;;;;18.20;11.35;;;12.60;99.90;;;;;;5050689;28;20037;-66
2022/06/07 06:27:37;;;;;;;14.65;11.23;;;12.60;99.90;;;;;;5049185;28;20045;-66
2022/06/07 06:30:05;;;;;;;15.98;10.80;;;12.60;99.90;;;;;;5050558;28;20052;-66
2022/06/07 06:32:30;;;;;;;18.13;10.48;;;12.50;99.90;;;;;;5049496;28;20402;-65
2022/06/07 06:34:56;;;;;;;15.60;10.13;;;12.50;99.90;;;;;;5048969;28;20037;-65
2022/06/07 06:37:21;;;;;;;16.63;9.93;;;12.50;99.90;;;;;;5047800;28;20403;-65
2022/06/07 06:39:47;;;;;;;15.35;9.48;;;12.50;99.90;;;;;;5048717;28;20504;-65
2022/06/07 06:42:13;;;;;;;14.68;8.82;;;12.50;99.90;;;;;;5048783;28;20829;-65
2022/06/07 06:44:38;;;;;;;14.23;9.05;;;12.50;99.90;;;;;;5050078;28;20033;-65
2022/06/07 06:47:04;;;;;;;15.88;9.10;;;12.50;99.90;;;;;;5050093;28;20052;-65
2022/06/07 06:49:32;;;;;;;17.88;8.52;;;12.60;99.90;;;;;;5048964;28;20480;-64
2022/06/07 06:51:59;;;;;;;14.38;8.13;;;12.60;99.90;;;;;;5048861;28;20136;-66
2022/06/07 06:54:25;;;;;;;14.00;7.90;;;12.60;99.90;;;;;;5048793;28;20519;-65
2022/06/07 06:56:51;;;;;;;13.20;8.18;;;12.60;99.90;;;;;;5048937;28;20569;-65
2022/06/07 06:59:18;;;;;;;11.23;7.05;;;12.70;99.90;;;;;;5048674;28;20065;-66
2022/06/07 07:01:44;;;;;;;11.43;6.47;;;12.70;99.90;;;;;;5048300;28;20049;-65
2022/06/07 07:04:13;;;;;;;12.20;6.55;;;12.70;99.90;;;;;;5048791;28;20044;-64
2022/06/07 07:06:39;;;;;;;17.70;6.68;;;12.70;99.90;;;;;;5048420;28;20379;-66
2022/06/07 07:09:07;;;;;;;11.50;6.22;;;12.80;99.90;;;;;;5051726;28;20033;-66
2022/06/07 07:11:38;;;;;;;11.57;6.00;;;12.80;99.90;;;;;;5052794;28;20118;-65
2022/06/07 07:14:06;;;;;;;12.35;6.30;;;12.80;99.90;;;;;;5052657;28;20072;-66
2022/06/07 07:16:36;;;;;;;11.48;5.55;;;12.80;99.90;;;;;;5053979;28;20049;-66
2022/06/07 07:19:04;;;;;;;12.15;5.65;;;12.80;99.90;;;;;;5053039;28;20546;-65
2022/06/07 07:21:36;;;;;;;10.40;5.25;;;12.80;99.90;;;;;;5053806;28;20041;-65
2022/06/07 07:24:04;;;;;;;11.90;5.60;;;12.70;99.90;;;;;;5053743;28;20029;-66
2022/06/07 07:26:31;;;;;;;14.52;5.85;;;12.70;99.90;;;;;;5052497;28;20049;-65
2022/06/07 07:28:58;;;;;;;10.30;5.70;;;12.70;99.90;;;;;;5052323;28;20106;-66
2022/06/07 07:31:26;;;;;;;12.18;5.25;;;12.70;99.90;;;;;;5053754;28;20040;-65
2022/06/07 07:33:52;;;;;;;10.35;5.05;;;12.70;99.90;;;;;;5052418;28;20037;-65
2022/06/07 07:36:18;;;;;;;10.77;5.15;;;12.70;99.90;;;;;;5053533;28;20453;-64
2022/06/07 07:38:44;;;;;;;9.88;4.75;;;12.70;99.90;;;;;;5052257;28;20053;-66
2022/06/07 07:41:23;;;;;;;9.45;5.70;;;12.80;99.90;;;;;;5051920;28;20400;-66
2022/06/07 07:43:50;;;;;;;9.15;4.80;;;12.70;99.90;;;;;;5052166;28;20041;-66
2022/06/07 07:46:17;;;;;;;7.50;4.43;;;12.80;99.90;;;;;;5053350;28;20425;-66
2022/06/07 07:48:43;;;;;;;10.45;4.80;;;12.80;99.90;;;;;;5053270;28;20086;-64
2022/06/07 07:51:18;;;;;;;11.30;4.43;;;12.80;99.90;;;;;;5053506;28;20484;-66
2022/06/07 07:53:44;;;;;;;16.42;5.03;;;12.80;99.90;;;;;;5052179;28;20377;-65
2022/06/07 07:56:10;;;;;;;8.50;4.70;;;12.90;99.90;;;;;;5051911;28;20086;-64
2022/06/07 07:58:36;;;;;;;9.32;4.93;;;12.90;99.90;;;;;;5053348;28;20479;-66
2022/06/07 08:01:09;;;;;;;12.18;5.18;;;12.90;99.90;;;;;;5051698;28;20073;-66
2022/06/07 08:03:37;;;;;;;10.52;5.10;;;12.90;99.90;;;;;;5052083;28;20041;-66
2022/06/07 08:06:05;;;;;;;10.02;4.75;;;12.90;99.90;;;;;;5053183;28;20498;-65
2022/06/07 08:08:30;;;;;;;9.68;4.78;;;13.00;99.90;;;;;;5051724;28;20037;-66
2022/06/07 08:10:56;;;;;;;10.98;5.50;;;13.00;99.90;;;;;;5053177;28;20033;-66
2022/06/07 08:13:22;;;;;;;8.98;4.95;;;13.00;99.90;;;;;;5051812;28;20098;-66
2022/06/07 08:15:48;;;;;;;10.30;5.40;;;13.00;99.90;;;;;;5051643;28;20110;-65
2022/06/07 08:18:13;;;;;;;9.85;5.85;;;13.00;99.90;;;;;;5051331;28;20041;-66
2022/06/07 08:20:39;;;;;;;12.15;6.60;;;13.00;99.90;;;;;;5052632;28;20467;-65
2022/06/07 08:23:07;;;;;;;9.48;6.10;;;13.00;99.90;;;;;;5053154;28;20044;-64
2022/06/07 08:25:33;;;;;;;12.13;6.25;;;13.00;99.90;;;;;;5052828;28;20099;-66
2022/06/07 08:28:02;;;;;;;11.32;7.05;;;13.10;99.90;;;;;;5049454;28;20080;-65
2022/06/07 08:30:27;;;;;;;13.07;7.25;;;13.10;99.90;;;;;;5050223;28;20094;-66
2022/06/07 08:32:53;;;;;;;10.13;7.25;;;13.10;99.90;;;;;;5051377;28;20062;-66
2022/06/07 08:38:05;;;;;;;12.93;6.50;;;13.10;99.90;;;;;;5050564;28;20487;-65
2022/06/07 08:40:39;;;;;;;10.50;5.47;;;13.10;99.90;;;;;;5049503;28;20416;-65
2022/06/07 08:43:31;;;;;;;13.32;6.60;;;13.10;99.90;;;;;;5058799;28;20044;-65
2022/06/07 08:45:58;;;;;;;11.10;6.07;;;13.10;99.90;;;;;;5045685;28;20049;-66
2022/06/07 08:48:26;;;;;;;12.00;6.22;;;13.10;99.90;;;;;;5050581;28;20306;-64
2022/06/07 08:51:16;;;;;;;12.27;5.93;;;13.20;99.90;;;;;;5050162;28;20085;-65
2022/06/07 08:53:46;;;;;;;9.70;5.55;;;13.20;99.90;;;;;;5050439;28;20048;-66
2022/06/07 08:56:17;;;;;;;12.20;6.10;;;13.20;99.90;;;;;;5032258;28;20136;-66
2022/06/07 08:58:49;;;;;;;11.13;6.20;;;13.30;99.90;;;;;;5049155;28;20049;-65
2022/06/07 09:01:27;;;;;;;11.30;6.70;;;13.30;99.90;;;;;;5046785;28;20396;-65
2022/06/07 09:04:05;;;;;;;11.55;6.05;;;13.30;99.90;;;;;;5049656;28;20055;-65
2022/06/07 09:06:35;;;;;;;9.70;5.63;;;13.40;99.90;;;;;;5032615;28;20067;-65
2022/06/07 09:09:01;;;;;;;10.80;5.90;;;13.40;99.90;;;;;;5050199;28;20640;-64
2022/06/07 09:14:29;;;;;;;11.07;5.78;;;13.40;99.90;;;;;;5051832;28;20045;-65
2022/06/07 09:16:56;;;;;;;9.35;5.00;;;13.40;99.90;;;;;;5050734;28;20400;-65
2022/06/07 09:19:25;;;;;;;8.20;5.78;;;13.40;99.90;;;;;;5051525;28;20044;-65
2022/06/07 09:21:52;;;;;;;10.70;5.70;;;13.40;99.90;;;;;;5050311;28;20935;-66
2022/06/07 09:24:29;;;;;;;9.90;4.68;;;13.40;99.90;;;;;;5050125;28;20033;-65
2022/06/07 09:27:06;;;;;;;10.23;5.40;;;13.40;99.90;;;;;;5049209;28;20033;-66
2022/06/07 09:29:36;;;;;;;8.23;3.85;;;13.40;99.90;;;;;;5046538;28;20400;-66
2022/06/07 09:32:09;;;;;;;10.35;4.43;;;13.40;99.90;;;;;;5050709;28;20076;-65
2022/06/07 09:34:37;;;;;;;12.20;4.15;;;13.50;99.90;;;;;;5048961;28;20416;-66
2022/06/07 09:37:06;;;;;;;9.52;4.28;;;13.50;99.90;;;;;;5046719;28;20068;-66
2022/06/07 09:39:38;;;;;;;9.23;4.20;;;13.40;99.90;;;;;;5032665;28;20136;-66
2022/06/07 09:42:29;;;;;;;9.55;3.90;;;13.40;99.90;;;;;;5032701;28;20040;-67
2022/06/07 09:45:18;;;;;;;7.95;3.92;;;13.30;99.90;;;;;;5049044;28;20124;-66
2022/06/07 09:47:43;;;;;;;11.38;4.35;;;13.30;99.90;;;;;;5044634;28;20057;-65
2022/06/07 09:50:41;;;;;;;9.32;3.50;;;13.30;99.90;;;;;;5048992;28;20475;-65
2022/06/07 09:53:10;;;;;;;9.50;3.45;;;13.20;99.90;;;;;;5028581;28;20045;-64
2022/06/07 09:55:46;;;;;;;6.18;3.35;;;13.20;99.90;;;;;;5012313;28;20045;-65
2022/06/07 09:58:32;;;;;;;7.95;3.42;;;13.20;99.90;;;;;;5029016;28;20041;-65
2022/06/07 10:01:05;;;;;;;11.13;4.00;;;13.20;99.90;;;;;;5010724;28;20045;-65
2022/06/07 10:03:42;;;;;;;33.70;5.25;;;13.20;99.90;;;;;;5028548;28;20045;-66
2022/06/07 10:06:13;;;;;;;7.07;3.67;;;13.20;99.90;;;;;;5028753;28;20518;-66
2022/06/07 10:09:16;;;;;;;7.93;3.40;;;13.20;99.90;;;;;;5028238;28;20053;-65
2022/06/07 10:12:17;;;;;;;10.07;3.70;;;13.20;99.90;;;;;;5027095;28;20048;-65
2022/06/07 10:14:49;;;;;;;10.05;3.55;;;13.20;99.90;;;;;;5010355;28;20045;-66
2022/06/07 10:17:33;;;;;;;8.10;3.47;;;13.30;99.90;;;;;;5009028;28;20052;-66
2022/06/07 10:20:13;;;;;;;8.18;3.70;;;13.30;99.90;;;;;;5009561;28;20132;-65
2022/06/07 10:23:01;;;;;;;5.40;3.60;;;13.30;99.90;;;;;;5010232;28;20068;-65
2022/06/07 10:26:04;;;;;;;8.20;3.95;;;13.40;99.90;;;;;;5014264;28;20082;-67
2022/06/07 10:28:45;;;;;;;7.57;4.25;;;13.30;99.90;;;;;;5021940;28;20136;-65
2022/06/07 10:31:40;;;;;;;9.15;3.70;;;13.40;99.90;;;;;;5055117;28;20041;-65
2022/06/07 10:34:45;;;;;;;13.65;3.65;;;13.30;99.90;;;;;;5046542;28;20048;-66
2022/06/07 10:37:19;;;;;;;8.40;3.97;;;13.30;99.90;;;;;;5057237;28;20496;-65
2022/06/07 10:40:11;;;;;;;9.57;3.80;;;13.30;99.90;;;;;;5045419;28;20118;-66
2022/06/07 10:42:46;;;;;;;6.20;3.40;;;13.20;99.90;;;;;;5047632;28;20053;-65
2022/06/07 10:45:15;;;;;;;10.85;4.22;;;13.20;99.90;;;;;;5050657;28;20407;-66
2022/06/07 10:47:47;;;;;;;11.18;4.78;;;13.20;99.90;;;;;;5051801;28;20040;-67
2022/06/07 10:50:33;;;;;;;9.07;4.40;;;13.20;99.90;;;;;;5051373;28;20055;-64
2022/06/07 10:53:14;;;;;;;7.05;3.70;;;13.20;99.90;;;;;;5050700;28;20366;-66
2022/06/07 10:56:03;;;;;;;8.63;4.10;;;13.30;99.90;;;;;;5052994;28;20427;-65
2022/06/07 10:58:57;;;;;;;9.57;4.53;;;13.30;99.90;;;;;;5060886;28;20049;-64
2022/06/07 11:01:45;;;;;;;7.90;3.97;;;13.30;99.90;;;;;;5046387;28;20136;-67
2022/06/07 11:10:25;;;;;;;10.48;4.40;;;13.30;99.90;;;;;;5050462;28;20053;-65
2022/06/07 11:13:39;;;;;;;10.68;4.40;;;13.40;99.90;;;;;;5051592;28;20060;-64
2022/06/07 11:16:15;;;;;;;12.43;4.80;;;13.40;99.90;;;;;;5014437;28;20472;-65
2022/06/07 11:18:42;;;;;;;7.93;4.07;;;13.40;99.90;;;;;;5014274;28;20059;-65
2022/06/07 11:21:10;;;;;;;6.68;4.03;;;13.40;99.90;;;;;;5029895;28;20053;-65
2022/06/07 11:23:38;;;;;;;11.00;4.30;;;13.50;99.90;;;;;;5013534;28;20042;-64
2022/06/07 11:26:16;;;;;;;10.13;4.30;;;13.60;99.90;;;;;;5013319;28;20049;-66
2022/06/07 11:28:41;;;;;;;11.65;4.93;;;13.70;99.90;;;;;;5012349;28;20057;-66
2022/06/07 11:31:35;;;;;;;12.82;4.43;;;13.70;99.90;;;;;;5013458;28;20100;-65
2022/06/07 11:34:24;;;;;;;10.73;4.47;;;13.80;99.90;;;;;;5011826;28;20068;-64
2022/06/07 11:37:16;;;;;;;9.73;4.57;;;13.90;99.90;;;;;;5013566;28;20120;-66
2022/06/07 11:39:52;;;;;;;10.57;4.70;;;14.00;99.90;;;;;;5008825;28;20052;-66
2022/06/07 11:42:19;;;;;;;11.55;4.88;;;14.10;99.90;;;;;;5029663;28;20369;-66
2022/06/07 11:45:16;;;;;;;10.85;5.18;;;14.10;99.90;;;;;;4996839;28;20049;-64
2022/06/07 11:47:45;;;;;;;11.50;4.90;;;14.20;99.90;;;;;;5013621;28;20072;-65
2022/06/07 11:50:25;;;;;;;10.20;4.80;;;14.30;99.90;;;;;;5013436;28;20056;-65
2022/06/07 11:52:55;;;;;;;13.07;4.85;;;14.30;99.90;;;;;;5051264;28;20408;-66
2022/06/07 11:55:22;;;;;;;11.50;4.80;;;14.40;99.90;;;;;;5050241;28;20499;-65
2022/06/07 11:58:03;;;;;;;12.23;4.13;;;14.40;99.90;;;;;;5050661;28;20044;-64
2022/06/07 12:00:29;;;;;;;12.15;4.53;;;14.40;99.90;;;;;;5050748;28;20075;-65
2022/06/07 12:02:57;;;;;;;12.18;4.82;;;14.40;99.90;;;;;;5050772;28;20487;-64
2022/06/07 12:05:30;;;;;;;14.38;4.85;;;14.40;99.90;;;;;;5050089;28;20041;-66
2022/06/07 12:08:14;;;;;;;9.95;4.72;;;14.50;99.90;;;;;;5050363;28;20037;-66
2022/06/07 12:10:54;;;;;;;12.98;4.97;;;14.50;99.90;;;;;;5049603;28;20387;-65
2022/06/07 12:16:22;;;;;;;11.38;5.00;;;14.50;99.90;;;;;;5050228;28;20064;-65
2022/06/07 12:18:52;;;;;;;10.45;4.20;;;14.40;99.90;;;;;;5050580;28;20506;-66
2022/06/07 12:21:18;;;;;;;10.45;4.93;;;14.50;99.90;;;;;;5050036;28;20487;-66
2022/06/07 12:23:59;;;;;;;7.93;4.35;;;14.50;99.90;;;;;;5051687;28;20127;-65
2022/06/07 12:26:31;;;;;;;8.95;3.90;;;14.70;99.90;;;;;;5033355;28;20048;-66
2022/06/07 12:29:22;;;;;;;6.38;3.38;;;15.00;99.90;;;;;;5049553;28;20490;-65
2022/06/07 12:32:15;;;;;;;53.47;32.17;;;15.20;99.90;;;;;;5044825;28;20053;-66
2022/06/07 12:34:41;;;;;;;6.78;3.22;;;15.50;99.90;;;;;;5050371;28;20132;-65
2022/06/07 12:37:09;;;;;;;9.13;3.30;;;15.60;99.90;;;;;;5050830;28;20551;-65
2022/06/07 12:39:47;;;;;;;6.53;3.45;;;15.70;99.90;;;;;;5050258;28;20033;-66
2022/06/07 12:42:15;;;;;;;37.60;8.35;;;15.80;99.90;;;;;;5050876;28;20052;-65
2022/06/07 12:44:49;;;;;;;10.75;3.65;;;15.90;99.90;;;;;;5050739;28;20056;-66
2022/06/07 12:47:31;;;;;;;12.57;3.70;;;15.80;99.90;;;;;;5049487;28;20045;-65
2022/06/07 12:49:57;;;;;;;8.35;3.45;;;15.90;99.90;;;;;;5050395;28;20040;-65
2022/06/07 12:52:29;;;;;;;9.32;3.30;;;15.90;99.90;;;;;;5050759;28;20033;-64
2022/06/07 12:55:18;;;;;;;9.37;4.13;;;16.10;99.90;;;;;;5049712;28;20032;-66
2022/06/07 12:57:52;;;;;;;8.93;4.60;;;16.10;99.90;;;;;;5049927;28;20044;-65
2022/06/07 13:00:23;;;;;;;11.73;4.10;;;16.00;99.90;;;;;;5049072;28;20045;-64
2022/06/07 13:03:06;;;;;;;10.23;4.38;;;16.10;99.90;;;;;;5050565;28;20091;-64
2022/06/07 13:05:36;;;;;;;11.45;4.32;;;16.20;99.90;;;;;;5049418;28;20055;-63
2022/06/07 13:08:12;;;;;;;10.65;5.10;;;16.30;99.90;;;;;;5048763;28;20048;-65
2022/06/07 13:10:38;;;;;;;11.32;4.72;;;16.20;99.90;;;;;;5048544;28;20046;-64
2022/06/07 13:13:15;;;;;;;12.52;4.60;;;16.30;99.90;;;;;;5050781;28;20041;-64
2022/06/07 13:16:08;;;;;;;10.73;4.38;;;16.20;99.90;;;;;;5047773;28;20573;-64
2022/06/07 13:18:38;;;;;;;8.57;4.15;;;16.20;99.90;;;;;;5049585;28;20538;-63
2022/06/07 13:21:13;;;;;;;9.30;5.15;;;16.20;99.90;;;;;;5048645;28;20053;-63